Terminal Aerodrome Forecast
Issued by NWS Salt Lake City, UT

Home | Current Version | Previous Version | Text Only | Print | Product List | Glossary On
Versions: 1 2 3 4 5 6 7 8 9 10 11 12 13 14 15 16 17 18 19 20 21 22 23 24 25 26 27 28 29 30 31 32 33 34 35 36 37 38 39 40 41 42 43 44 45 46 47
000
FTUS45 KSLC 282340
TAFSLC
TAF
KSLC 282340Z 2900/3006 33008KT P6SM VCTS SCT100CB BKN150
     FM290200 17007KT P6SM VCSH SCT080 BKN110
     FM290800 15011KT P6SM SCT090 BKN150
     FM291600 16014G21KT P6SM SCT070 BKN110=

USA.gov is the U.S. government's official web portal to all federal, state and local government web resources and services.